Hlavní strana
METAR-TAF:

METAR-TAF

Letiště :

Twin County Airport

Galax / Hillsville, Virginie, Spojené státy americké

zeměpisná šířka: 36-46N, zeměpisná délka: 080-49W, výška: 834 m

Aktuální stav počasí

Zpráva byla vytvořena před 27 minutami, v 11:15 UTC
Východoseverovýchodní vítr 4 kt
Teplota 3°C
Vlhkost vzduchu 93%
Tlak 1019 hPa
Viditelnost: 1.2 km
Zataženo ve výšce 300 ft
neznámé

METAR: KHLX 241115Z AUTO 07004KT 3/4SM UP OVC003 03/02 A3009 RMK AO2 P0003 T00260021

Čas: 06:42 (11:42 UTC)


TAF: chybějící

Stav a předpovědi počasí z více než 4 000 letišť (zprávy METAR a TAF).

Červené a žluté tečky na mapě představují dostupné meteorologické stanice.

Když kurzor umístíte na tečku, zobrazí se název stanice.

Pak kliknutím zobrazíte stav a předpověď počasí.

Chcete-li změnit mapu, kliknutím na zelené tlačítko se znaménkem +mapu přiblížíte, kliknutím na zelené tlačítko se znaménkem – mapu oddálíte a kliknutím na zelené šipky přejdete na sousední mapy.


METAR-TAF: